Terminal Aerodrome Forecast
Issued by NWS Jackson, MS

Home | Current Version | Previous Version | Text Only | Print | Product List | Glossary On
Versions: 1 2 3 4 5 6 7 8 9 10 11 12
830
FTUS44 KJAN 281735
TAFJAN
TAF
KJAN 281735Z 2818/2918 19007KT P6SM SCT040
     FM291000 15007KT 5SM BR BKN007 OVC015
     FM291500 17010KT P6SM BKN020=

USA.gov is the U.S. government's official web portal to all federal, state and local government web resources and services.